»·PEaware :: PH-AVA KSMX-KBFL

PH-AVA :: KSMX-KBFL

FLIGHT INFORMATION

Flight Status: Arrived
Operator: Privately registered:
Netherlands
More flights under this callsign
Pilot: Joost B. (14393)
Aircraft: CESSNA 172 SKYHAWK
(C172)
More flights by this aircraft type
Origin: KSMX Santa Maria Pub/Capt Hancock
United States
Destination: KBFL Meadows
United States
More flights between these airports :: More routes between these airports
Route: +
File this flight plan on PilotEdge
Remarks:
Altitude:
(Current/Filed)
7,500ft
Speed:
(Current/Filed)
0kts
Departed: 09-Jun-17 11:01 AM
Arrived: 09-Jun-17 11:52 AM
Distance/Time
Traveled:
76nm/0:51
Distance/Time
To Go:
Arrived

Flight Plot

Page will automatically refresh every two minutes.


Map Options




Map Legend


Flown Route
Filed Route
Departure Airport
Arrival Airport
Navaid (VOR, NDB)
Fix

Horizontal Profiles

Position Reports

Time Latitude Longitude Heading Altitude Ground
Speed
09-Jun-17 10:36 34.906055 -120.457650 316 264ft 0kts
09-Jun-17 10:37 34.906055 -120.457650 316 264ft 0kts
09-Jun-17 10:38 34.906055 -120.457650 316 264ft 0kts
09-Jun-17 10:39 34.906055 -120.457650 316 264ft 0kts
09-Jun-17 10:40 34.906055 -120.457650 316 264ft 0kts
09-Jun-17 10:41 34.906055 -120.457650 316 264ft 0kts
09-Jun-17 10:42 34.906055 -120.457650 316 264ft 0kts
09-Jun-17 10:43 34.906055 -120.457650 316 264ft 0kts
09-Jun-17 10:44 34.906055 -120.457650 316 264ft 0kts
09-Jun-17 10:45 34.906055 -120.457650 316 264ft 0kts
09-Jun-17 10:46 34.906055 -120.457650 316 264ft 0kts
09-Jun-17 10:47 34.906055 -120.457650 316 264ft 0kts
09-Jun-17 10:48 34.906055 -120.457650 316 264ft 0kts
09-Jun-17 10:49 34.906055 -120.457650 316 264ft 0kts
09-Jun-17 10:50 34.906055 -120.457650 316 264ft 0kts
09-Jun-17 10:51 34.906055 -120.457650 316 264ft 0kts
09-Jun-17 10:52 34.906055 -120.457650 316 264ft 0kts
09-Jun-17 10:53 34.906055 -120.457650 316 264ft 0kts
09-Jun-17 10:54 34.905233 -120.458214 135 264ft 0kts
09-Jun-17 10:55 34.905092 -120.458036 133 264ft 9kts
09-Jun-17 10:56 34.901587 -120.453807 136 264ft 18kts
09-Jun-17 10:57 34.897865 -120.449376 134 264ft 18kts
09-Jun-17 10:58 34.894219 -120.445023 146 264ft 16kts
09-Jun-17 10:59 34.893226 -120.444730 281 264ft 0kts
09-Jun-17 11:00 34.893226 -120.444730 281 264ft 0kts
09-Jun-17 11:01 34.893226 -120.444730 281 264ft 0kts
09-Jun-17 11:02 34.893227 -120.444737 281 264ft 1kts
09-Jun-17 11:03 34.897798 -120.451756 314 483ft 74kts
09-Jun-17 11:04 34.913932 -120.448561 82 1270ft 97kts
09-Jun-17 11:05 34.896533 -120.422930 133 1396ft 104kts
09-Jun-17 11:06 34.900380 -120.392523 50 1394ft 103kts
09-Jun-17 11:07 34.922693 -120.372414 22 1446ft 98kts
09-Jun-17 11:08 34.949101 -120.363360 12 1506ft 100kts
09-Jun-17 11:09 34.975624 -120.353744 19 1856ft 100kts
09-Jun-17 11:10 35.000263 -120.337604 41 1976ft 104kts
09-Jun-17 11:11 35.014262 -120.306858 82 1980ft 111kts
09-Jun-17 11:12 35.019621 -120.269482 72 1913ft 112kts
09-Jun-17 11:13 35.023316 -120.231843 96 1817ft 114kts
09-Jun-17 11:14 35.027886 -120.195349 55 1744ft 112kts
09-Jun-17 11:15 35.052401 -120.178118 15 2389ft 103kts
09-Jun-17 11:16 35.074641 -120.154882 51 3068ft 109kts
09-Jun-17 11:17 35.091228 -120.121431 55 3184ft 118kts
09-Jun-17 11:18 35.105753 -120.091458 64 3007ft 118kts
09-Jun-17 11:19 35.113850 -120.056589 71 3667ft 96kts
09-Jun-17 11:20 35.127279 -120.036969 306 4547ft 90kts
09-Jun-17 11:21 35.112738 -120.033162 75 5489ft 106kts
09-Jun-17 11:22 35.129062 -120.035570 246 6286ft 84kts
09-Jun-17 11:23 35.108943 -120.044271 193 7126ft 81kts
09-Jun-17 11:24 35.119177 -120.060863 327 7918ft 98kts
09-Jun-17 11:25 35.142431 -120.047525 51 8621ft 119kts
09-Jun-17 11:26 35.162207 -120.014693 51 9279ft 121kts
09-Jun-17 11:27 35.182989 -119.981692 46 9931ft 122kts
09-Jun-17 11:28 35.204913 -119.946887 51 10245ft 134kts
09-Jun-17 11:29 35.225853 -119.908415 58 10305ft 135kts
09-Jun-17 11:30 35.243285 -119.867171 69 10003ft 135kts
09-Jun-17 11:31 35.258159 -119.824885 68 9727ft 134kts
09-Jun-17 11:32 35.272791 -119.782110 69 9383ft 136kts
09-Jun-17 11:33 35.285345 -119.738723 73 9065ft 134kts
09-Jun-17 11:34 35.297197 -119.695771 71 8749ft 133kts
09-Jun-17 11:35 35.310936 -119.654103 70 8433ft 131kts
09-Jun-17 11:36 35.327031 -119.614375 62 8119ft 131kts
09-Jun-17 11:37 35.341973 -119.574063 70 7778ft 131kts
09-Jun-17 11:38 35.353605 -119.532818 75 7493ft 124kts
09-Jun-17 11:39 35.363352 -119.493892 77 7474ft 118kts
09-Jun-17 11:40 35.372897 -119.455231 76 7435ft 118kts
09-Jun-17 11:41 35.382847 -119.416678 79 7197ft 115kts
09-Jun-17 11:42 35.389444 -119.378353 88 6646ft 112kts
09-Jun-17 11:43 35.392169 -119.341497 92 6060ft 109kts
09-Jun-17 11:44 35.391926 -119.304832 89 5451ft 109kts
09-Jun-17 11:45 35.395047 -119.267990 94 4856ft 107kts
09-Jun-17 11:46 35.395939 -119.231891 91 4281ft 106kts
09-Jun-17 11:47 35.400634 -119.196187 83 3721ft 106kts
09-Jun-17 11:48 35.403949 -119.161062 90 3161ft 105kts
09-Jun-17 11:49 35.407313 -119.126442 64 2567ft 102kts
09-Jun-17 11:50 35.420264 -119.096367 58 1801ft 100kts
09-Jun-17 11:51 35.421393 -119.068603 139 1364ft 84kts
09-Jun-17 11:52 35.411782 -119.049549 42 886ft 64kts
09-Jun-17 11:53 35.427019 -119.051539 314 607ft 63kts
09-Jun-17 11:54 35.434795 -119.060052 43 509ft 1kts
09-Jun-17 11:55 35.434796 -119.060051 42 509ft 0kts
09-Jun-17 11:56 35.434796 -119.060051 42 509ft 0kts
09-Jun-17 11:57 35.435964 -119.058542 54 509ft 14kts
09-Jun-17 11:58 35.434609 -119.054859 124 509ft 14kts
09-Jun-17 11:59 35.435605 -119.053412 189 509ft 0kts
09-Jun-17 12:00 35.435605 -119.053412 189 509ft 0kts
09-Jun-17 12:01 35.435605 -119.053412 189 509ft 0kts
09-Jun-17 12:02 35.435605 -119.053412 189 509ft 0kts
09-Jun-17 12:03 35.435605 -119.053412 189 509ft 0kts
09-Jun-17 12:04 35.435725 -119.053409 180 509ft 0kts
09-Jun-17 12:05 35.435725 -119.053409 180 509ft 0kts
09-Jun-17 12:06 35.435725 -119.053409 180 509ft 0kts
09-Jun-17 12:07 35.435725 -119.053409 180 509ft 0kts
09-Jun-17 12:08 35.435725 -119.053409 180 509ft 0kts

Navigation Log

Ident Type
1. KSMX Airport
2. KBFL Airport